Time;durP1;ratioP1;P1;durP2;ratioP2;P2;SDS_P1;SDS_P2;PMS_P1;PMS_P2;Temp;Humidity;BMP_temperature;BMP_pressure;BME280_temperature;BME280_humidity;BME280_pressure;Samples;Min_cycle;Max_cycle;Signal;HPM_P1;HPM_P2
2023/08/17 00:00:13;;;;;;;7.38;2.80;;;22.10;99.90;;;;;;5029326;28;20208;-76
2023/08/17 00:02:39;;;;;;;8.23;2.85;;;22.00;99.90;;;;;;5023106;28;20624;-75
2023/08/17 00:05:08;;;;;;;5.40;3.25;;;22.00;99.90;;;;;;5020673;28;20720;-75
2023/08/17 00:07:34;;;;;;;3.78;2.35;;;21.90;99.90;;;;;;5023102;28;20237;-75
2023/08/17 00:09:59;;;;;;;5.07;2.60;;;21.90;99.90;;;;;;5023851;28;20264;-76
2023/08/17 00:12:25;;;;;;;5.18;3.10;;;21.90;99.90;;;;;;5025229;28;20223;-74
2023/08/17 00:14:52;;;;;;;5.32;2.70;;;21.90;99.90;;;;;;5022057;28;20221;-75
2023/08/17 00:17:17;;;;;;;5.78;2.33;;;21.80;99.90;;;;;;5024285;28;20208;-75
2023/08/17 00:19:43;;;;;;;6.10;2.47;;;21.80;99.90;;;;;;5027271;28;20214;-75
2023/08/17 00:22:09;;;;;;;3.38;2.60;;;21.70;99.90;;;;;;5040985;28;20189;-76
2023/08/17 00:24:34;;;;;;;5.38;2.92;;;21.70;99.90;;;;;;5023151;28;20586;-75
2023/08/17 00:27:00;;;;;;;5.00;2.67;;;21.60;99.90;;;;;;5029770;28;20213;-75
2023/08/17 00:29:26;;;;;;;6.35;2.90;;;21.60;99.90;;;;;;5036677;28;20204;-74
2023/08/17 00:31:52;;;;;;;4.90;2.72;;;21.60;99.90;;;;;;5026083;28;20300;-75
2023/08/17 00:34:18;;;;;;;6.47;2.63;;;21.60;99.90;;;;;;5020811;28;20672;-75
2023/08/17 00:36:44;;;;;;;5.45;3.17;;;21.60;99.90;;;;;;5033813;28;20219;-76
2023/08/17 00:39:09;;;;;;;3.70;2.60;;;21.50;99.90;;;;;;5027953;28;20212;-73
2023/08/17 00:41:35;;;;;;;5.15;2.40;;;21.50;99.90;;;;;;5022805;28;20210;-75
2023/08/17 00:44:01;;;;;;;5.07;2.97;;;21.40;99.90;;;;;;5020505;28;20324;-75
2023/08/17 00:46:27;;;;;;;4.47;2.72;;;21.50;99.90;;;;;;5027287;28;20180;-75
2023/08/17 00:48:54;;;;;;;5.82;2.83;;;21.50;99.90;;;;;;5021558;28;20709;-75
2023/08/17 00:51:23;;;;;;;5.03;2.65;;;21.50;99.90;;;;;;5024691;28;20635;-75
2023/08/17 00:53:50;;;;;;;4.63;2.60;;;21.50;99.90;;;;;;5019702;28;20205;-75
2023/08/17 00:56:16;;;;;;;5.72;2.90;;;21.40;99.90;;;;;;5033516;28;20200;-75
2023/08/17 00:58:43;;;;;;;5.72;2.90;;;21.50;99.90;;;;;;5023230;28;20261;-75
2023/08/17 01:01:08;;;;;;;6.82;2.80;;;21.40;99.90;;;;;;5023253;28;20180;-75
2023/08/17 01:03:34;;;;;;;4.03;2.80;;;21.50;99.90;;;;;;5027779;28;20211;-75
2023/08/17 01:06:02;;;;;;;5.30;3.13;;;21.40;99.90;;;;;;5032759;28;20319;-75
2023/08/17 01:08:29;;;;;;;4.57;3.00;;;21.50;99.90;;;;;;5031355;28;20204;-75
2023/08/17 01:10:55;;;;;;;5.00;3.25;;;21.40;99.90;;;;;;5025974;28;20211;-74
2023/08/17 01:13:48;;;;;;;4.70;3.17;;;21.30;99.90;;;;;;5023839;28;20207;-74
2023/08/17 01:16:21;;;;;;;5.50;2.90;;;21.30;99.90;;;;;;5026111;28;20283;-74
2023/08/17 01:18:49;;;;;;;6.93;2.80;;;21.30;99.90;;;;;;5024558;28;20208;-74
2023/08/17 01:21:18;;;;;;;5.03;3.10;;;21.20;99.90;;;;;;5024749;28;20688;-73
2023/08/17 01:23:48;;;;;;;5.75;3.15;;;21.20;99.90;;;;;;5020688;28;20247;-74
2023/08/17 01:26:15;;;;;;;5.00;2.90;;;21.20;99.90;;;;;;5022017;28;20764;-74
2023/08/17 01:28:46;;;;;;;4.22;3.00;;;21.10;99.90;;;;;;5022354;28;20230;-74
2023/08/17 01:31:19;;;;;;;5.88;3.15;;;21.00;99.90;;;;;;5022134;28;20169;-74
2023/08/17 01:33:51;;;;;;;6.53;3.20;;;21.00;99.90;;;;;;5024823;28;20223;-74
2023/08/17 01:36:32;;;;;;;4.00;2.80;;;20.90;99.90;;;;;;5038673;28;20224;-74
2023/08/17 01:39:00;;;;;;;3.70;3.00;;;20.90;99.90;;;;;;5026049;28;20227;-74
2023/08/17 01:41:26;;;;;;;6.78;3.20;;;21.00;99.90;;;;;;5032997;28;20281;-73
2023/08/17 01:43:53;;;;;;;4.72;2.95;;;21.00;99.90;;;;;;5026936;28;20220;-73
2023/08/17 01:46:19;;;;;;;7.65;3.13;;;21.00;99.90;;;;;;5023004;28;20177;-73
2023/08/17 01:48:45;;;;;;;5.30;2.83;;;20.90;99.90;;;;;;5026606;28;20274;-74
2023/08/17 01:51:16;;;;;;;4.78;2.80;;;21.00;99.90;;;;;;5025556;28;20687;-73
2023/08/17 01:53:42;;;;;;;6.90;2.85;;;20.80;99.90;;;;;;5027376;28;20258;-74
2023/08/17 01:56:07;;;;;;;7.60;3.22;;;20.70;99.90;;;;;;5020655;28;20213;-73
2023/08/17 01:58:33;;;;;;;7.03;3.10;;;20.80;99.90;;;;;;5031176;28;20172;-74
2023/08/17 02:00:58;;;;;;;3.83;2.67;;;20.80;99.90;;;;;;5023588;28;20168;-74
2023/08/17 02:03:24;;;;;;;5.25;2.88;;;20.80;99.90;;;;;;5023923;28;20294;-73
2023/08/17 02:05:50;;;;;;;5.70;2.95;;;20.80;99.90;;;;;;5023083;28;20258;-74
2023/08/17 02:08:15;;;;;;;7.50;3.22;;;20.70;99.90;;;;;;5022089;28;20208;-74
2023/08/17 02:10:41;;;;;;;5.30;2.75;;;20.70;99.90;;;;;;5026246;28;20201;-74
2023/08/17 02:13:06;;;;;;;3.83;2.63;;;20.70;99.90;;;;;;5035398;28;20280;-73
2023/08/17 02:15:32;;;;;;;5.97;3.05;;;20.70;99.90;;;;;;5031698;28;20212;-74
2023/08/17 02:18:01;;;;;;;3.97;3.00;;;20.70;99.90;;;;;;5027584;28;20222;-74
2023/08/17 02:20:26;;;;;;;7.30;3.00;;;20.70;99.90;;;;;;5035894;28;20286;-73
2023/08/17 02:22:52;;;;;;;6.28;3.28;;;20.60;99.90;;;;;;5024050;28;20303;-73
2023/08/17 02:25:17;;;;;;;5.15;3.03;;;20.60;99.90;;;;;;5018618;28;20291;-74
2023/08/17 02:27:43;;;;;;;5.18;2.90;;;20.60;99.90;;;;;;5021833;28;20313;-73
2023/08/17 02:30:09;;;;;;;6.28;2.63;;;20.50;99.90;;;;;;5025511;28;20205;-74
2023/08/17 02:32:35;;;;;;;4.72;2.80;;;20.50;99.90;;;;;;5022540;28;20676;-74
2023/08/17 02:35:01;;;;;;;6.32;2.95;;;20.50;99.90;;;;;;5020792;28;20224;-74
2023/08/17 02:37:26;;;;;;;6.38;3.20;;;20.50;99.90;;;;;;5022352;28;20173;-74
2023/08/17 02:39:52;;;;;;;5.38;2.75;;;20.50;99.90;;;;;;5021728;28;20176;-73
2023/08/17 02:42:18;;;;;;;6.90;3.45;;;20.50;99.90;;;;;;5019503;28;20703;-74
2023/08/17 02:44:43;;;;;;;4.75;3.10;;;20.50;99.90;;;;;;5018940;28;20212;-73
2023/08/17 02:47:09;;;;;;;7.22;3.42;;;20.50;99.90;;;;;;5025008;28;20976;-74
2023/08/17 02:49:35;;;;;;;7.13;3.15;;;20.40;99.90;;;;;;5032493;28;20183;-73
2023/08/17 02:52:01;;;;;;;6.47;3.38;;;20.50;99.90;;;;;;5034950;28;20207;-73
2023/08/17 02:54:26;;;;;;;4.07;3.22;;;20.50;99.90;;;;;;5035651;28;20787;-72
2023/08/17 02:56:52;;;;;;;5.72;3.55;;;20.50;99.90;;;;;;5028542;28;20555;-73
2023/08/17 02:59:18;;;;;;;5.72;2.78;;;20.40;99.90;;;;;;5033304;28;20219;-73
2023/08/17 03:01:45;;;;;;;5.78;3.33;;;20.40;99.90;;;;;;5033283;28;20318;-73
2023/08/17 03:04:10;;;;;;;9.35;4.78;;;20.30;99.90;;;;;;5029785;28;20231;-73
2023/08/17 03:06:36;;;;;;;8.70;4.13;;;20.30;99.90;;;;;;5036690;28;20694;-73
2023/08/17 03:09:02;;;;;;;5.38;2.63;;;20.30;99.90;;;;;;5029132;28;20200;-74
2023/08/17 03:11:27;;;;;;;3.80;2.60;;;20.30;99.90;;;;;;5026515;28;20212;-73
2023/08/17 03:13:59;;;;;;;3.92;3.05;;;20.30;99.90;;;;;;5025905;28;20213;-73
2023/08/17 03:16:25;;;;;;;7.55;2.72;;;20.40;99.90;;;;;;5024415;28;20260;-72
2023/08/17 03:18:51;;;;;;;5.45;2.83;;;20.40;99.90;;;;;;5025539;28;20173;-74
2023/08/17 03:21:18;;;;;;;6.15;2.97;;;20.40;99.90;;;;;;5025269;28;20220;-74
2023/08/17 03:23:44;;;;;;;3.35;2.60;;;20.40;99.90;;;;;;5036036;28;20262;-74
2023/08/17 03:26:09;;;;;;;5.00;2.78;;;20.40;99.90;;;;;;5039283;28;20803;-72
2023/08/17 03:28:35;;;;;;;10.95;3.05;;;20.40;99.90;;;;;;5041398;28;20262;-73
2023/08/17 03:31:02;;;;;;;4.43;2.72;;;20.40;99.90;;;;;;5037807;28;20545;-74
2023/08/17 03:33:28;;;;;;;3.85;2.45;;;20.40;99.90;;;;;;5037012;28;20656;-73
2023/08/17 03:35:54;;;;;;;3.60;2.40;;;20.40;99.90;;;;;;5035170;28;20291;-73
2023/08/17 03:38:20;;;;;;;4.97;2.90;;;20.40;99.90;;;;;;5033248;28;20282;-73
2023/08/17 03:40:47;;;;;;;4.57;2.60;;;20.40;99.90;;;;;;5033535;28;20212;-74
2023/08/17 03:43:13;;;;;;;3.58;2.63;;;20.40;99.90;;;;;;5030466;28;21151;-73
2023/08/17 03:45:40;;;;;;;4.65;2.45;;;20.50;99.90;;;;;;5032047;28;20203;-74
2023/08/17 03:48:06;;;;;;;5.40;2.58;;;20.50;99.90;;;;;;5027030;28;20204;-73
2023/08/17 03:50:32;;;;;;;4.53;2.70;;;20.50;99.90;;;;;;5028853;28;20208;-74
2023/08/17 03:52:58;;;;;;;3.85;2.40;;;20.50;99.90;;;;;;5025052;28;20748;-73
2023/08/17 03:55:24;;;;;;;5.45;2.70;;;20.50;99.90;;;;;;5025334;28;20181;-72
2023/08/17 03:57:49;;;;;;;4.38;2.70;;;20.40;99.90;;;;;;5024336;28;20388;-73
2023/08/17 04:00:15;;;;;;;8.68;3.25;;;20.40;99.90;;;;;;5036824;28;20295;-72
2023/08/17 04:02:40;;;;;;;5.53;3.30;;;20.40;99.90;;;;;;5041768;28;20235;-73
2023/08/17 04:05:06;;;;;;;5.68;3.00;;;20.40;99.90;;;;;;5037382;28;20595;-73
2023/08/17 04:07:32;;;;;;;8.98;3.83;;;20.30;99.90;;;;;;5038210;28;20185;-74
2023/08/17 04:09:58;;;;;;;5.63;3.17;;;20.40;99.90;;;;;;5031515;28;20181;-73
2023/08/17 04:12:23;;;;;;;4.38;2.60;;;20.50;99.90;;;;;;5034868;28;20295;-71
2023/08/17 04:14:49;;;;;;;5.90;4.38;;;20.50;99.90;;;;;;5034148;28;20290;-73
2023/08/17 04:17:15;;;;;;;5.80;2.90;;;20.50;99.90;;;;;;5030133;28;20238;-71
2023/08/17 04:19:40;;;;;;;5.28;2.78;;;20.50;99.90;;;;;;5032242;28;20623;-74
2023/08/17 04:22:06;;;;;;;5.53;2.95;;;20.60;99.90;;;;;;5027409;28;20180;-74
2023/08/17 04:24:31;;;;;;;7.13;4.07;;;20.70;99.90;;;;;;5028031;28;20240;-73
2023/08/17 04:26:57;;;;;;;4.35;2.50;;;20.80;99.90;;;;;;5025143;28;20216;-73
2023/08/17 04:29:23;;;;;;;3.97;2.38;;;20.90;99.90;;;;;;5024170;28;20213;-70
2023/08/17 04:31:48;;;;;;;4.63;3.22;;;20.90;99.90;;;;;;5025037;28;20215;-73
2023/08/17 04:34:14;;;;;;;5.53;3.17;;;20.90;99.90;;;;;;5020551;28;20734;-73
2023/08/17 04:36:40;;;;;;;4.60;2.63;;;20.80;99.90;;;;;;5033103;28;20265;-73
2023/08/17 04:39:06;;;;;;;4.28;2.58;;;21.00;99.90;;;;;;5037825;28;20239;-73
2023/08/17 04:41:31;;;;;;;4.50;2.63;;;21.20;99.90;;;;;;5042001;28;20208;-73
2023/08/17 04:43:57;;;;;;;3.92;2.22;;;22.40;99.90;;;;;;5027240;28;20218;-73
2023/08/17 04:46:23;;;;;;;4.68;2.00;;;23.60;99.90;;;;;;5034356;28;20553;-71
2023/08/17 04:48:49;;;;;;;7.50;4.43;;;24.70;99.90;;;;;;5035458;28;20192;-73
2023/08/17 04:51:15;;;;;;;4.35;2.78;;;25.50;99.90;;;;;;5031057;28;20259;-74
2023/08/17 04:53:41;;;;;;;5.10;2.00;;;25.20;99.90;;;;;;5032544;28;20710;-74
2023/08/17 04:56:06;;;;;;;3.22;2.13;;;25.30;99.90;;;;;;5027872;28;20887;-74
2023/08/17 04:58:32;;;;;;;5.32;4.40;;;25.70;99.90;;;;;;5028698;28;20179;-74
2023/08/17 05:00:59;;;;;;;4.57;3.13;;;25.70;99.90;;;;;;5026976;28;20219;-74
2023/08/17 05:03:24;;;;;;;8.82;2.78;;;26.40;99.90;;;;;;5024386;28;20224;-72
2023/08/17 05:05:53;;;;;;;4.30;2.88;;;26.60;99.90;;;;;;5024338;28;20321;-73
2023/08/17 05:08:18;;;;;;;7.90;5.20;;;26.40;99.90;;;;;;5017923;28;20209;-73
2023/08/17 05:10:44;;;;;;;6.15;4.85;;;26.20;99.90;;;;;;5029453;28;20575;-73
2023/08/17 05:13:09;;;;;;;5.75;3.38;;;25.80;99.90;;;;;;5030802;28;20280;-73
2023/08/17 05:15:35;;;;;;;4.80;2.25;;;25.30;99.90;;;;;;5028368;28;20204;-73
2023/08/17 05:18:01;;;;;;;5.97;3.78;;;24.20;99.90;;;;;;5029532;28;20734;-73
2023/08/17 05:20:26;;;;;;;5.55;4.20;;;23.60;99.90;;;;;;5028574;28;20208;-73
2023/08/17 05:22:52;;;;;;;5.80;3.97;;;23.40;99.90;;;;;;5028168;28;20211;-73
2023/08/17 05:25:17;;;;;;;4.07;2.83;;;23.30;99.90;;;;;;5026739;28;20261;-75
2023/08/17 05:27:43;;;;;;;6.47;2.35;;;24.10;99.90;;;;;;5026674;28;20272;-74
2023/08/17 05:30:09;;;;;;;5.00;3.20;;;24.00;99.90;;;;;;5026134;28;20204;-74
2023/08/17 05:32:34;;;;;;;4.90;2.13;;;23.90;99.90;;;;;;5023884;28;20547;-72
2023/08/17 05:35:00;;;;;;;3.88;2.00;;;23.70;99.90;;;;;;5023428;28;20204;-74
2023/08/17 05:37:26;;;;;;;2.92;1.77;;;23.50;99.90;;;;;;5018816;28;20212;-73
2023/08/17 05:39:51;;;;;;;6.15;2.83;;;23.20;99.90;;;;;;5025486;28;20176;-74
2023/08/17 05:42:17;;;;;;;3.38;2.72;;;22.90;99.90;;;;;;5025840;28;20216;-74
2023/08/17 05:44:42;;;;;;;5.05;2.75;;;22.70;99.90;;;;;;5022152;28;20215;-74
2023/08/17 05:47:08;;;;;;;3.65;2.25;;;22.30;99.90;;;;;;5020872;28;20204;-74
2023/08/17 05:49:34;;;;;;;4.15;2.45;;;22.30;99.90;;;;;;5027935;28;20189;-74
2023/08/17 05:51:59;;;;;;;4.40;2.30;;;22.50;99.90;;;;;;5030334;28;20180;-74
2023/08/17 05:54:25;;;;;;;8.25;4.75;;;22.40;99.90;;;;;;5031993;28;20250;-72
2023/08/17 05:56:50;;;;;;;5.15;3.70;;;22.60;99.90;;;;;;5031820;28;20681;-74
2023/08/17 05:59:16;;;;;;;4.65;2.00;;;22.60;99.90;;;;;;5033570;28;20204;-73
2023/08/17 06:01:42;;;;;;;4.22;2.40;;;22.60;99.90;;;;;;5032081;28;20291;-74
2023/08/17 06:04:07;;;;;;;3.03;2.30;;;22.50;99.90;;;;;;5027029;28;20270;-74
2023/08/17 06:06:33;;;;;;;3.78;2.20;;;22.50;99.90;;;;;;5024617;28;20216;-73
2023/08/17 06:08:59;;;;;;;8.13;2.42;;;22.40;99.90;;;;;;5026572;28;20258;-73
2023/08/17 06:11:25;;;;;;;4.72;2.45;;;22.20;99.90;;;;;;5023042;28;20208;-72
2023/08/17 06:13:50;;;;;;;3.33;2.38;;;21.80;99.90;;;;;;5024373;28;20212;-73
2023/08/17 06:16:16;;;;;;;6.00;3.78;;;21.80;99.90;;;;;;5022965;28;20595;-74
2023/08/17 06:18:42;;;;;;;3.28;2.45;;;21.70;99.90;;;;;;5022941;28;20216;-74
2023/08/17 06:21:08;;;;;;;4.15;2.30;;;21.70;99.90;;;;;;5022173;28;20212;-74
2023/08/17 06:23:34;;;;;;;8.65;2.90;;;21.70;99.90;;;;;;5018152;28;20236;-73
2023/08/17 06:26:00;;;;;;;7.93;3.42;;;21.60;99.90;;;;;;5026278;28;20731;-74
2023/08/17 06:28:26;;;;;;;6.35;2.60;;;21.70;99.90;;;;;;5032757;28;20208;-73
2023/08/17 06:30:53;;;;;;;4.60;2.40;;;21.60;99.90;;;;;;5022194;28;20195;-73
2023/08/17 06:33:19;;;;;;;4.50;2.67;;;21.70;99.90;;;;;;5031212;28;20778;-73
2023/08/17 06:35:45;;;;;;;4.70;2.47;;;21.70;99.90;;;;;;5026874;28;20599;-72
2023/08/17 06:38:10;;;;;;;3.10;2.40;;;21.90;99.90;;;;;;5037437;28;20204;-74
2023/08/17 06:40:36;;;;;;;4.75;2.70;;;22.00;99.90;;;;;;5029375;28;20584;-73
2023/08/17 06:43:02;;;;;;;4.38;2.70;;;22.10;99.90;;;;;;5035359;28;20189;-73
2023/08/17 06:45:27;;;;;;;4.88;2.65;;;22.30;99.90;;;;;;5025947;28;20227;-73
2023/08/17 06:47:53;;;;;;;4.35;2.78;;;22.50;99.90;;;;;;5030375;28;20215;-73
2023/08/17 06:50:19;;;;;;;4.70;2.70;;;22.50;99.90;;;;;;5026777;28;20300;-74
2023/08/17 06:52:44;;;;;;;6.45;2.75;;;22.50;99.90;;;;;;5024812;28;20209;-73
2023/08/17 06:55:10;;;;;;;7.10;3.30;;;22.30;99.90;;;;;;5026526;28;20628;-72
2023/08/17 06:57:36;;;;;;;6.07;2.70;;;22.40;99.90;;;;;;5023563;28;20255;-74
2023/08/17 07:00:05;;;;;;;3.47;2.20;;;22.50;99.90;;;;;;5025629;28;20703;-74
2023/08/17 07:02:31;;;;;;;7.72;4.32;;;22.60;99.90;;;;;;5020499;28;20224;-73
2023/08/17 07:04:56;;;;;;;10.43;2.97;;;22.50;99.90;;;;;;5032519;28;20263;-74
2023/08/17 07:07:22;;;;;;;4.60;2.78;;;22.70;99.90;;;;;;5029364;28;20560;-73
2023/08/17 07:09:48;;;;;;;4.47;3.03;;;22.60;99.90;;;;;;5031308;28;20180;-74
2023/08/17 07:12:13;;;;;;;9.43;4.63;;;22.50;99.90;;;;;;5030957;28;20219;-73
2023/08/17 07:14:39;;;;;;;6.50;4.10;;;22.50;99.90;;;;;;5028613;28;20220;-73
2023/08/17 07:17:05;;;;;;;6.13;3.88;;;22.50;99.90;;;;;;5031873;28;20224;-73
2023/08/17 07:19:30;;;;;;;6.00;3.35;;;22.50;99.90;;;;;;5027477;28;20628;-74
2023/08/17 07:21:56;;;;;;;3.65;2.63;;;22.50;99.90;;;;;;5027335;28;20705;-73
2023/08/17 07:24:21;;;;;;;7.00;3.42;;;22.40;99.90;;;;;;5026543;28;20224;-74
2023/08/17 07:26:47;;;;;;;6.15;2.78;;;22.40;99.90;;;;;;5024708;28;20640;-74
2023/08/17 07:29:13;;;;;;;4.65;2.42;;;22.30;99.90;;;;;;5026428;28;20212;-74
2023/08/17 07:31:39;;;;;;;6.60;2.58;;;22.40;99.90;;;;;;5023724;28;20177;-73
2023/08/17 07:34:07;;;;;;;5.47;3.20;;;22.30;99.90;;;;;;5025813;28;20216;-73
2023/08/17 07:36:34;;;;;;;8.18;2.63;;;22.30;99.90;;;;;;5023386;28;20245;-72
2023/08/17 07:38:59;;;;;;;6.40;3.50;;;22.40;99.90;;;;;;5026938;28;20706;-74
2023/08/17 07:41:26;;;;;;;4.57;2.83;;;22.40;99.90;;;;;;5029846;28;20232;-73
2023/08/17 07:43:51;;;;;;;5.35;2.95;;;22.50;99.90;;;;;;5030584;28;20256;-74
2023/08/17 07:46:17;;;;;;;5.25;2.95;;;22.30;99.90;;;;;;5031757;28;20207;-73
2023/08/17 07:48:43;;;;;;;3.70;2.55;;;22.40;99.90;;;;;;5027625;28;20212;-74
2023/08/17 07:51:08;;;;;;;8.27;4.28;;;22.60;99.90;;;;;;5030304;28;20215;-73
2023/08/17 07:53:34;;;;;;;5.85;3.13;;;22.50;99.90;;;;;;5025731;28;20591;-72
2023/08/17 07:56:00;;;;;;;5.63;3.10;;;22.70;99.90;;;;;;5028968;28;20228;-72
2023/08/17 07:58:25;;;;;;;6.35;3.13;;;22.70;99.90;;;;;;5025713;28;20605;-73
2023/08/17 08:00:51;;;;;;;7.07;3.10;;;23.00;99.90;;;;;;5027092;28;20181;-73
2023/08/17 08:03:16;;;;;;;4.22;2.90;;;23.10;99.90;;;;;;5024885;28;20307;-74
2023/08/17 08:05:42;;;;;;;4.35;2.60;;;23.10;99.90;;;;;;5024018;28;20299;-73
2023/08/17 08:08:08;;;;;;;3.72;2.22;;;23.20;99.90;;;;;;5027702;28;20287;-73
2023/08/17 08:10:33;;;;;;;5.40;2.47;;;23.40;99.90;;;;;;5022021;28;20183;-74
2023/08/17 08:12:59;;;;;;;4.72;2.70;;;23.40;99.90;;;;;;5026901;28;20610;-72
2023/08/17 08:15:24;;;;;;;4.55;3.53;;;23.90;99.90;;;;;;5021816;28;20266;-71
2023/08/17 08:17:50;;;;;;;10.10;6.50;;;24.50;99.90;;;;;;5026139;28;20254;-74
2023/08/17 08:20:16;;;;;;;4.28;2.97;;;24.70;99.90;;;;;;5031088;28;20212;-74
2023/08/17 08:22:42;;;;;;;4.68;2.55;;;25.30;99.90;;;;;;5028409;28;20709;-73
2023/08/17 08:25:08;;;;;;;9.05;3.13;;;25.50;99.90;;;;;;5029975;28;20678;-74
2023/08/17 08:27:33;;;;;;;4.25;2.53;;;25.60;99.90;;;;;;5028249;28;20216;-74
2023/08/17 08:29:59;;;;;;;4.22;2.45;;;26.10;99.90;;;;;;5027245;28;20584;-74
2023/08/17 08:32:24;;;;;;;4.60;2.95;;;26.50;99.90;;;;;;5028074;28;20330;-73
2023/08/17 08:34:50;;;;;;;4.10;2.88;;;26.00;99.90;;;;;;5023967;28;20217;-74
2023/08/17 08:37:16;;;;;;;5.50;2.90;;;25.70;99.90;;;;;;5029746;28;20207;-74
2023/08/17 08:39:50;;;;;;;4.90;2.67;;;25.20;99.90;;;;;;5038408;23;20704;-73
2023/08/17 08:42:17;;;;;;;5.18;2.70;;;24.80;99.90;;;;;;5021015;28;20941;-73
2023/08/17 08:44:42;;;;;;;9.18;3.75;;;24.40;99.90;;;;;;4994003;28;20249;-75
2023/08/17 08:47:08;;;;;;;3.70;3.00;;;24.40;99.90;;;;;;4993639;28;20244;-74
2023/08/17 08:49:41;;;;;;;7.97;3.35;;;24.30;99.90;;;;;;4993928;28;20201;-73
2023/08/17 08:52:16;;;;;;;5.00;3.10;;;24.10;99.90;;;;;;4992593;28;20178;-73
2023/08/17 08:54:45;;;;;;;5.88;4.22;;;24.00;99.90;;;;;;4982590;28;20300;-73
2023/08/17 08:57:14;;;;;;;5.13;3.47;;;23.90;99.90;;;;;;4987216;28;20220;-73
2023/08/17 08:59:44;;;;;;;4.30;3.50;;;23.50;99.90;;;;;;4997801;28;20566;-73
2023/08/17 09:02:15;;;;;;;3.92;3.17;;;23.40;99.90;;;;;;4993524;28;20218;-73
2023/08/17 09:04:42;;;;;;;5.38;3.78;;;23.10;99.90;;;;;;5001140;28;20248;-73
2023/08/17 09:07:09;;;;;;;6.00;3.63;;;23.20;99.90;;;;;;4992818;28;20231;-74
2023/08/17 09:09:36;;;;;;;9.63;3.30;;;23.40;99.90;;;;;;5000413;28;20209;-73
2023/08/17 09:12:02;;;;;;;4.68;3.22;;;23.60;99.90;;;;;;4997127;28;20582;-75
2023/08/17 09:14:27;;;;;;;6.05;3.40;;;23.60;99.90;;;;;;4996342;28;20220;-73
2023/08/17 09:16:53;;;;;;;6.00;3.53;;;23.60;99.90;;;;;;4987392;28;20217;-73
2023/08/17 09:19:20;;;;;;;4.55;3.13;;;23.40;99.90;;;;;;4995912;28;20740;-73
2023/08/17 09:21:45;;;;;;;4.82;3.58;;;23.60;99.90;;;;;;4981163;28;20265;-72
2023/08/17 09:24:12;;;;;;;5.15;3.65;;;24.00;99.90;;;;;;4987362;28;20218;-74
2023/08/17 09:26:38;;;;;;;4.95;3.35;;;24.10;99.90;;;;;;4990418;28;20205;-74
2023/08/17 09:29:17;;;;;;;3.83;3.35;;;24.50;99.90;;;;;;4991006;28;20213;-73
2023/08/17 09:31:43;;;;;;;5.82;3.30;;;24.60;99.90;;;;;;4979593;28;20586;-76
2023/08/17 09:34:09;;;;;;;6.93;3.60;;;24.90;99.90;;;;;;4991816;28;20182;-75
2023/08/17 09:36:39;;;;;;;6.30;3.25;;;24.80;99.90;;;;;;4982040;28;20210;-73
2023/08/17 09:39:05;;;;;;;4.22;3.22;;;24.60;99.90;;;;;;4994551;28;20244;-74
2023/08/17 09:41:37;;;;;;;6.35;3.88;;;24.90;99.90;;;;;;4991167;28;20245;-74
2023/08/17 09:44:04;;;;;;;5.50;3.47;;;24.40;99.90;;;;;;4992588;28;20230;-74
2023/08/17 09:46:29;;;;;;;7.28;3.95;;;24.60;99.90;;;;;;4995191;28;20209;-74
2023/08/17 09:48:55;;;;;;;4.40;2.97;;;24.40;99.90;;;;;;4995362;28;20279;-73
2023/08/17 09:51:21;;;;;;;8.45;3.35;;;24.70;99.90;;;;;;4994342;28;20205;-74
2023/08/17 09:53:55;;;;;;;7.18;3.50;;;24.80;99.90;;;;;;4990329;28;20213;-72
2023/08/17 09:56:23;;;;;;;3.65;3.10;;;24.80;99.90;;;;;;4985884;28;20232;-74
2023/08/17 09:58:50;;;;;;;3.53;3.00;;;24.80;99.90;;;;;;4989847;28;20273;-74
2023/08/17 10:01:17;;;;;;;7.05;3.40;;;25.10;99.90;;;;;;4991867;28;20202;-73
2023/08/17 10:03:46;;;;;;;3.85;3.45;;;25.20;99.90;;;;;;4991263;28;20222;-74
2023/08/17 10:06:19;;;;;;;6.00;3.40;;;25.20;99.90;;;;;;4987229;28;20296;-74
2023/08/17 10:08:52;;;;;;;4.80;3.10;;;25.20;99.90;;;;;;4981983;28;20260;-73
2023/08/17 10:11:20;;;;;;;6.22;3.97;;;24.90;99.90;;;;;;4997925;28;20217;-74
2023/08/17 10:13:52;;;;;;;5.65;3.90;;;24.60;99.90;;;;;;5000273;28;20228;-74
2023/08/17 10:16:20;;;;;;;4.70;3.63;;;24.40;99.90;;;;;;4990194;28;20217;-74
2023/08/17 10:19:09;;;;;;;5.30;4.35;;;24.40;99.90;;;;;;4995002;28;20590;-72
2023/08/17 10:21:54;;;;;;;5.55;4.68;;;24.40;99.90;;;;;;4994965;28;20211;-75
2023/08/17 10:24:20;;;;;;;4.50;3.10;;;24.40;99.90;;;;;;4988845;28;20210;-75
2023/08/17 10:26:46;;;;;;;6.13;4.07;;;24.50;99.90;;;;;;4992843;28;20202;-74
2023/08/17 10:29:12;;;;;;;5.05;3.83;;;24.60;99.90;;;;;;4999981;28;20719;-74
2023/08/17 10:31:38;;;;;;;4.60;3.38;;;24.70;99.90;;;;;;4993290;28;20188;-74
2023/08/17 10:34:04;;;;;;;7.03;3.40;;;25.00;99.90;;;;;;5001805;28;20196;-74
2023/08/17 10:36:32;;;;;;;8.07;2.75;;;25.00;99.90;;;;;;4994185;28;20206;-74
2023/08/17 10:39:23;;;;;;;6.53;3.20;;;25.70;99.90;;;;;;4993413;28;20210;-73
2023/08/17 10:41:50;;;;;;;5.45;3.17;;;25.90;99.90;;;;;;4991257;28;20208;-74
2023/08/17 10:44:37;;;;;;;4.03;3.40;;;26.20;99.90;;;;;;5008481;28;20217;-74
2023/08/17 10:47:20;;;;;;;9.73;3.67;;;26.10;99.90;;;;;;4994009;28;20287;-74
2023/08/17 10:49:51;;;;;;;5.43;3.97;;;26.40;99.90;;;;;;4994819;28;20224;-74
2023/08/17 10:52:26;;;;;;;7.78;5.97;;;26.50;99.90;;;;;;5003959;28;20185;-74
2023/08/17 10:54:52;;;;;;;5.07;4.53;;;26.30;99.90;;;;;;4983681;28;20202;-71
2023/08/17 10:57:37;;;;;;;7.38;4.10;;;26.30;99.90;;;;;;5010328;28;20271;-73
2023/08/17 11:00:27;;;;;;;5.70;3.60;;;26.10;99.90;;;;;;5001494;28;20244;-76
2023/08/17 11:02:54;;;;;;;5.70;4.10;;;26.30;99.90;;;;;;4989242;28;20590;-74
2023/08/17 11:05:43;;;;;;;5.68;3.47;;;25.90;99.90;;;;;;4995106;28;20214;-74
2023/08/17 11:08:33;;;;;;;4.28;3.70;;;25.70;99.90;;;;;;4991401;28;20268;-75
2023/08/17 11:11:09;;;;;;;4.55;3.42;;;25.80;99.90;;;;;;4969388;28;20214;-73
2023/08/17 11:13:40;;;;;;;7.88;6.38;;;26.10;99.90;;;;;;4989264;28;20216;-74
2023/08/17 11:16:07;;;;;;;7.50;4.90;;;26.20;99.90;;;;;;4993978;28;20224;-75
2023/08/17 11:18:34;;;;;;;6.60;4.10;;;26.30;99.90;;;;;;4993205;28;20292;-74
2023/08/17 11:21:03;;;;;;;4.25;3.67;;;26.30;99.90;;;;;;5005108;28;20216;-74
2023/08/17 11:23:30;;;;;;;6.00;4.43;;;26.20;99.90;;;;;;4987827;28;20253;-74
2023/08/17 11:25:56;;;;;;;5.60;4.18;;;26.10;99.90;;;;;;4998830;28;20672;-71
2023/08/17 11:28:22;;;;;;;3.72;3.40;;;25.90;99.90;;;;;;4991217;28;20180;-74
2023/08/17 11:31:01;;;;;;;7.15;4.30;;;26.00;99.90;;;;;;5007207;28;20194;-74
2023/08/17 11:33:28;;;;;;;10.30;8.27;;;25.90;99.90;;;;;;4982215;28;20723;-74
2023/08/17 11:35:58;;;;;;;6.82;4.95;;;26.00;99.90;;;;;;5004029;28;20212;-73
2023/08/17 11:38:23;;;;;;;5.50;4.97;;;26.00;99.90;;;;;;4987754;28;20213;-74
2023/08/17 11:40:50;;;;;;;5.55;4.82;;;26.10;99.90;;;;;;4997475;28;20221;-74
2023/08/17 11:43:16;;;;;;;5.50;4.30;;;26.40;99.90;;;;;;4995088;28;20260;-74
2023/08/17 11:45:41;;;;;;;4.60;4.00;;;26.40;99.90;;;;;;4993034;28;20217;-74
2023/08/17 11:48:07;;;;;;;4.75;3.90;;;26.40;99.90;;;;;;4997942;28;20225;-75
2023/08/17 11:50:33;;;;;;;4.78;4.20;;;26.40;99.90;;;;;;4990193;28;20209;-74
2023/08/17 11:53:02;;;;;;;5.45;4.03;;;26.60;99.90;;;;;;4992428;28;20217;-74
2023/08/17 11:55:27;;;;;;;5.68;4.05;;;27.00;99.90;;;;;;4989182;28;20186;-74
2023/08/17 11:57:53;;;;;;;3.90;3.60;;;26.80;99.90;;;;;;4985596;28;20195;-74
2023/08/17 12:00:21;;;;;;;6.13;3.97;;;27.10;99.90;;;;;;4982217;28;20253;-73
2023/08/17 12:02:48;;;;;;;5.68;4.13;;;27.20;99.90;;;;;;4999693;28;20770;-72
2023/08/17 12:05:18;;;;;;;5.53;4.32;;;27.50;99.90;;;;;;4994548;28;20668;-72
2023/08/17 12:07:45;;;;;;;6.82;4.35;;;27.70;99.90;;;;;;4999701;28;20268;-72
2023/08/17 12:10:11;;;;;;;5.15;4.53;;;27.10;99.90;;;;;;4989999;28;20587;-72
2023/08/17 12:12:39;;;;;;;6.72;4.78;;;27.30;99.90;;;;;;4990725;28;20217;-73
2023/08/17 12:15:05;;;;;;;5.00;4.50;;;27.60;99.90;;;;;;5001640;28;20725;-74
2023/08/17 12:17:30;;;;;;;5.72;4.53;;;27.60;99.90;;;;;;5000488;28;20208;-76
2023/08/17 12:19:58;;;;;;;5.05;4.10;;;27.70;99.90;;;;;;4997091;28;20264;-73
2023/08/17 12:22:25;;;;;;;5.22;4.35;;;27.80;99.90;;;;;;4997754;28;20170;-72
2023/08/17 12:24:52;;;;;;;6.15;4.40;;;26.70;99.90;;;;;;4990496;28;20202;-73
2023/08/17 12:27:18;;;;;;;6.95;4.63;;;27.00;99.90;;;;;;4993553;28;20210;-72
2023/08/17 12:29:51;;;;;;;6.15;4.53;;;26.80;99.90;;;;;;4992411;28;20601;-73
2023/08/17 12:32:18;;;;;;;6.05;5.28;;;26.70;99.90;;;;;;4992391;28;20213;-73
2023/08/17 12:34:44;;;;;;;8.55;5.43;;;26.30;99.90;;;;;;4985557;28;20727;-73
2023/08/17 12:37:11;;;;;;;7.50;6.00;;;26.20;99.90;;;;;;4987043;28;20682;-73
2023/08/17 12:39:37;;;;;;;5.60;5.00;;;26.20;99.90;;;;;;4994215;28;20246;-73
2023/08/17 12:42:04;;;;;;;5.20;4.40;;;26.20;99.90;;;;;;4987305;28;20206;-72
2023/08/17 12:44:29;;;;;;;4.85;4.38;;;26.20;99.90;;;;;;4994100;28;20298;-73